Ballynahinch, United Kingdom
Current Conditions -  °F | °C
As of 2:20 PM on Thursday 30 Oct 2014 (Local Time) from EGAC Reporting Station
Broken Clouds Broken Clouds  
Wind Chill: 59°   Ceiling: 2400
Heat Index: 59°   Visibility: 6mi
Dew Point: 57°   Wind: 10mph
Humidity: 94%   Direction: 170°S
Pressure: 29.83"   Gusts: NA
Location:  54.4°N, 5.88°W
Report Text: EGAC 301420Z 17009KT 9999 FEW013 SCT019 BKN024 15/14 Q1010
Loading
Personal Weather Stations






























Interactive Weather Map
Tropical Storm Tracking
New forecast layout! Learn more

10-Day Weather Forecast

Advertisements
Track Severe Weather on mobile